This is the latest recevied weather packets stored in our database for station/object DM1AS-13. If no packets are shown the sender has not sent any weather packets the latest 10 day(s).
| Time | Temp. | Humidity | Pressure | Rain* | Wind** | Luminosity | Snow |
|---|---|---|---|---|---|---|---|
| 1777902451 | 22.78° C | 54% | - | 0 mm | - | - | - |
| 1777902096 | 22.78° C | 56% | - | 0 mm | - | - | - |
| 1777901100 | 22.78° C | 54% | - | 0 mm | - | - | - |
| 1777900218 | 22.78° C | 53% | - | 0 mm | - | - | - |
| 1777899674 | 22.78° C | 53% | - | 0 mm | - | - | - |
| 1777898688 | 22.78° C | 53% | - | 0 mm | - | - | - |
| 1777898135 | - | 54% | - | 0 mm | - | - | - |
| 1777896845 | 22.22° C | 54% | 1014 hPa | 0 mm | - | - | - |
| 1777896675 | 22.22° C | 54% | 1013.9 hPa | 0 mm | - | - | - |
| 1777893677 | 21.67° C | 57% | 1014.1 hPa | 0 mm | - | - | - |
| 1777889257 | - | - | - | 0 mm | - | - | - |
| 1777888544 | 21.67° C | 57% | - | 0 mm | - | - | - |
| 1777887426 | 21.67° C | 58% | - | 0 mm | - | - | - |
| 1777887107 | 20.56° C | 61% | - | 0 mm | - | - | - |
| 1777884437 | 21.67° C | 61% | - | 0 mm | - | - | - |
| 1777883837 | 21.11° C | 62% | 1014.6 hPa | 0 mm | - | - | - |
| 1777882637 | 20.56° C | 62% | 1014.6 hPa | 0 mm | - | - | - |
| 1777882096 | - | - | - | 0 mm | - | - | - |
| 1777881062 | 20° C | 64% | - | 0 mm | - | - | - |
| 1777880355 | 19.44° C | 64% | - | 0 mm | - | - | - |
| 1777877253 | 17.78° C | 68% | - | 0 mm | - | - | - |
| 1777875685 | 17.78° C | 69% | - | 0 mm | - | - | - |
| 1777874736 | 17.22° C | 69% | - | 0 mm | - | - | - |
| 1777871895 | - | - | - | 0 mm | - | - | - |
| 1777870968 | - | - | - | 0 mm | - | - | - |
* Rain latest hour (hover to see other rain measurements)
** Current wind speed in m/s (hover to see current wind gust speed)